Terminal Aerodrome Forecast
Issued by NWS Cleveland, OH

Home | Current Version | Previous Version | Text Only | Print | Product List | Glossary Off
Versions: 1 2 3 4 5 6 7 8 9 10 11 12 13 14 15 16 17 18 19 20

000
FTUS41 KCLE 250500
TAFTOL
TAF
KTOL 250533Z 2506/2606 VRB04KT P6SM SKC
     FM251400 21005KT P6SM FEW040 BKN250
     FM252300 21006KT P6SM SCT100 OVC250
     FM260500 22006KT P6SM BKN100 OVC200=

USA.gov is the U.S. government's official web portal to all federal, state and local government web resources and services.